createdAt,value
2016-04-11T00:00:19.365Z,72.11
2016-04-11T00:01:19.367Z,72.4
2016-04-11T00:02:19.370Z,72.78
2016-04-11T00:03:19.373Z,73.25
2016-04-11T00:04:19.375Z,72.97
2016-04-11T00:05:19.362Z,72.97
2016-04-11T00:06:19.364Z,73.63
2016-04-11T00:07:19.368Z,73.44
2016-04-11T00:08:19.370Z,73.92
2016-04-11T00:09:19.373Z,73.92
2016-04-11T00:10:19.376Z,73.92
2016-04-11T00:11:19.364Z,73.92
2016-04-11T00:12:19.475Z,73.92
2016-04-11T00:13:19.368Z,74.68
2016-04-11T00:14:19.371Z,74.3
2016-04-11T00:15:19.359Z,74.73
2016-04-11T00:16:19.362Z,74.45
2016-04-11T00:17:19.380Z,74.83
2016-04-11T00:18:19.367Z,75.31
2016-04-11T00:19:19.370Z,75.31
2016-04-11T00:20:19.373Z,75.21
2016-04-11T00:21:19.359Z,75.11
2016-04-11T00:22:19.378Z,75.4
2016-04-11T00:23:19.365Z,75.31
2016-04-11T00:24:19.383Z,75.78
2016-04-11T00:25:19.370Z,75.59
2016-04-11T00:26:19.372Z,75.78
2016-04-11T00:27:19.391Z,76.25
2016-04-11T00:28:19.363Z,75.87
2016-04-11T00:29:19.366Z,76.44
2016-04-11T00:30:19.368Z,76.25
2016-04-11T00:31:19.371Z,76.44
2016-04-11T00:32:19.389Z,76.92
2016-04-11T00:33:19.370Z,77.2
2016-04-11T00:34:19.208Z,77.11
2016-04-11T00:35:19.696Z,76.92
2016-04-11T00:36:19.202Z,77.48
2016-04-11T00:37:19.361Z,77.58
2016-04-11T00:38:19.364Z,77.58
2016-04-11T00:39:19.367Z,77.29
2016-04-11T00:40:19.369Z,77.96
2016-04-11T00:41:19.357Z,77.73
2016-04-11T00:42:19.421Z,77.92
2016-04-11T00:43:19.362Z,78.2
2016-04-11T00:44:19.365Z,78.67
2016-04-11T00:45:19.368Z,78.49
2016-04-11T00:46:19.354Z,78.49
2016-04-11T00:47:19.373Z,79.15
2016-04-11T00:48:19.360Z,79.1
2016-04-11T00:49:19.363Z,78.91
2016-04-11T00:50:19.365Z,78.96
2016-04-11T00:51:19.368Z,78.77
2016-04-11T00:52:19.355Z,78.96
2016-04-11T00:53:19.358Z,78.87
2016-04-11T00:54:19.360Z,79.15
2016-04-11T00:55:19.363Z,79.25
2016-04-11T00:56:19.365Z,79.34
2016-04-11T00:57:19.368Z,79.44
2016-04-11T00:58:19.356Z,79.06
2016-04-11T00:59:19.358Z,78.96
2016-04-11T01:00:19.376Z,80
2016-04-11T01:01:19.379Z,79.44
2016-04-11T01:02:19.366Z,79.63
2016-04-11T01:03:19.369Z,79.34
2016-04-11T01:04:19.355Z,79.72
2016-04-11T01:05:19.374Z,79.63
2016-04-11T01:06:19.361Z,79.53
2016-04-11T01:07:19.364Z,79.72
2016-04-11T01:08:19.367Z,79.82
2016-04-11T01:09:19.355Z,79.82
2016-04-11T01:10:19.377Z,80.1
2016-04-11T01:11:19.364Z,80.38
2016-04-11T01:12:19.366Z,80.19
2016-04-11T01:13:19.369Z,80.29
2016-04-11T01:14:19.357Z,80.29
2016-04-11T01:15:19.359Z,80.76
2016-04-11T01:16:19.378Z,80.48
2016-04-11T01:17:19.365Z,80.57
2016-04-11T01:18:19.368Z,80.67
2016-04-11T01:19:19.354Z,81.05
2016-04-11T01:20:19.357Z,80.86
2016-04-11T01:21:19.360Z,80.95
2016-04-11T01:22:19.362Z,81.14
2016-04-11T01:23:19.365Z,81.05
2016-04-11T01:24:19.352Z,81.24
2016-04-11T01:25:19.355Z,81.43
2016-04-11T01:26:19.358Z,81.52
2016-04-11T01:27:19.361Z,81.76
2016-04-11T01:28:19.363Z,81.43
2016-04-11T01:29:19.350Z,81.33
2016-04-11T01:30:19.369Z,81.29
2016-04-11T01:31:19.355Z,82.47
2016-04-11T01:32:19.358Z,82.24
2016-04-11T01:33:19.361Z,82.05
2016-04-11T01:34:19.364Z,82.14
2016-04-11T01:35:19.366Z,82.05
2016-04-11T01:36:19.369Z,82.52
2016-04-11T01:37:19.355Z,82.14
2016-04-11T01:38:19.358Z,82.62
2016-04-11T01:39:19.361Z,82.05
2016-04-11T01:40:19.348Z,82.14
2016-04-11T01:41:19.352Z,82.43
2016-04-11T01:42:19.354Z,82.24
2016-04-11T01:43:19.357Z,82.43
2016-04-11T01:44:19.359Z,82.24
2016-04-11T01:45:19.362Z,82.14
2016-04-11T01:46:19.349Z,82.9
2016-04-11T01:47:19.352Z,82.9
2016-04-11T01:48:19.354Z,82.62
2016-04-11T01:49:19.201Z,82.52
2016-04-11T01:50:19.359Z,82.52
2016-04-11T01:51:19.362Z,82.62
2016-04-11T01:52:19.349Z,82.43
2016-04-11T01:53:19.352Z,83
2016-04-11T01:54:19.355Z,83.09
2016-04-11T01:55:19.357Z,83.09
2016-04-11T01:56:19.360Z,83.09
2016-04-11T01:57:19.378Z,83.09
2016-04-11T01:58:19.350Z,83.75
2016-04-11T01:59:19.353Z,83.56
2016-04-11T02:00:19.355Z,83.56
2016-04-11T02:01:19.358Z,83.47
2016-04-11T02:02:19.344Z,83.94
2016-04-11T02:03:19.347Z,83.85
2016-04-11T02:04:19.350Z,83.66
2016-04-11T02:05:19.353Z,83.75
2016-04-11T02:06:19.355Z,83.66
2016-04-11T02:07:19.359Z,83.75
2016-04-11T02:08:19.361Z,83.94
2016-04-11T02:09:19.380Z,84.04
2016-04-11T02:10:19.351Z,84.23
2016-04-11T02:11:19.354Z,84.13
2016-04-11T02:12:19.419Z,84.13
2016-04-11T02:13:19.359Z,83.94
2016-04-11T02:14:19.362Z,83.94
2016-04-11T02:15:19.348Z,83.85
2016-04-11T02:16:19.352Z,84.28
2016-04-11T02:17:19.354Z,84.19
2016-04-11T02:18:19.357Z,84.38
2016-04-11T02:19:19.343Z,84.75
2016-04-11T02:20:19.347Z,84.66
2016-04-11T02:21:19.349Z,85.13
2016-04-11T02:22:19.351Z,84.94
2016-04-11T02:23:19.354Z,85.04
2016-04-11T02:24:19.357Z,84.66
2016-04-11T02:25:19.360Z,84.47
2016-04-11T02:26:19.347Z,84.56
2016-04-11T02:27:19.350Z,84.85
2016-04-11T02:28:19.367Z,85.04
2016-04-11T02:29:19.339Z,85.32
2016-04-11T02:30:19.358Z,85.32
2016-04-11T02:31:19.361Z,85.23
2016-04-11T02:32:19.347Z,85.13
2016-04-11T02:33:19.351Z,85.23
2016-04-11T02:34:19.353Z,85.51
2016-04-11T02:35:19.340Z,85.23
2016-04-11T02:36:19.342Z,85.32
2016-04-11T02:37:19.345Z,85.61
2016-04-11T02:38:19.348Z,85.61
2016-04-11T02:39:19.351Z,85.51
2016-04-11T02:40:19.353Z,85.42
2016-04-11T02:41:19.356Z,85.8
2016-04-11T02:42:19.468Z,85.23
2016-04-11T02:43:19.346Z,85.32
2016-04-11T02:44:19.348Z,85.8
2016-04-11T02:45:19.351Z,85.89
2016-04-11T02:46:19.338Z,85.61
2016-04-11T02:47:19.341Z,85.89
2016-04-11T02:48:19.344Z,86.27
2016-04-11T02:49:19.346Z,86.08
2016-04-11T02:50:19.348Z,85.89
2016-04-11T02:51:19.351Z,86.08
2016-04-11T02:52:19.354Z,86.08
2016-04-11T02:53:19.342Z,86.18
2016-04-11T02:54:19.344Z,86.18
2016-04-11T02:55:19.347Z,86.27
2016-04-11T02:56:19.333Z,85.8
2016-04-11T02:57:19.368Z,85.89
2016-04-11T02:58:19.355Z,85.99
2016-04-11T02:59:19.342Z,86.08
2016-04-11T03:00:19.189Z,86.18
2016-04-11T03:01:19.192Z,86.27
2016-04-11T03:02:19.334Z,86.36
2016-04-11T03:03:19.336Z,85.89
2016-04-11T03:04:19.339Z,85.89
2016-04-11T03:05:19.342Z,85.8
2016-04-11T03:06:19.345Z,86.27
2016-04-11T03:07:19.332Z,85.89
2016-04-11T03:08:19.335Z,85.89
2016-04-11T03:09:19.337Z,85.99
2016-04-11T03:10:19.340Z,86.74
2016-04-11T03:11:19.327Z,86.65
2016-04-11T03:12:19.361Z,86.6
2016-04-11T03:13:19.332Z,86.65
2016-04-11T03:14:19.336Z,86.36
2016-04-11T03:15:19.338Z,86.98
2016-04-11T03:16:19.325Z,86.93
2016-04-11T03:17:19.327Z,86.79
2016-04-11T03:18:19.330Z,86.83
2016-04-11T03:19:19.333Z,86.55
2016-04-11T03:20:19.335Z,86.79
2016-04-11T03:21:19.338Z,86.7
2016-04-11T03:22:19.326Z,86.74
2016-04-11T03:23:19.343Z,86.79
2016-04-11T03:24:19.331Z,87.02
2016-04-11T03:25:19.334Z,86.65
2016-04-11T03:26:19.336Z,86.41
2016-04-11T03:27:19.354Z,86.7
2016-04-11T03:28:19.326Z,86.6
2016-04-11T03:29:19.329Z,86.51
2016-04-11T03:30:19.331Z,86.98
2016-04-11T03:31:19.334Z,86.89
2016-04-11T03:32:19.321Z,86.79
2016-04-11T03:33:19.324Z,86.79
2016-04-11T03:34:19.327Z,86.98
2016-04-11T03:35:19.330Z,87.17
2016-04-11T03:36:19.347Z,87.17
2016-04-11T03:37:19.319Z,86.79
2016-04-11T03:38:19.321Z,86.98
2016-04-11T03:39:19.325Z,86.79
2016-04-11T03:40:19.327Z,87.08
2016-04-11T03:41:19.330Z,87.17
2016-04-11T03:42:19.224Z,87.55
2016-04-11T03:43:19.320Z,87.55
2016-04-11T03:44:19.322Z,87.84
2016-04-11T03:45:19.325Z,87.55
2016-04-11T03:46:19.327Z,87.55
2016-04-11T03:47:19.315Z,87.74
2016-04-11T03:48:19.318Z,87.46
2016-04-11T03:49:19.321Z,87.36
2016-04-11T03:50:19.307Z,88.12
2016-04-11T03:51:19.326Z,88.4
2016-04-11T03:52:19.312Z,88.12
2016-04-11T03:53:19.315Z,88.02
2016-04-11T03:54:19.334Z,88.02
2016-04-11T03:55:19.320Z,88.02
2016-04-11T03:56:19.323Z,88.21
2016-04-11T03:57:19.326Z,88.12
2016-04-11T03:58:19.329Z,88.4
2016-04-11T03:59:19.315Z,88.12
2016-04-11T04:00:19.318Z,88.21
2016-04-11T04:01:19.305Z,88.02
2016-04-11T04:02:19.309Z,88.02
2016-04-11T04:03:19.311Z,88.02
2016-04-11T04:04:19.314Z,88.02
2016-04-11T04:05:19.316Z,88.02
2016-04-11T04:06:19.319Z,88.02
2016-04-11T04:07:19.305Z,87.84
2016-04-11T04:08:19.309Z,87.84
2016-04-11T04:09:19.311Z,88.02
2016-04-11T04:10:19.314Z,88.21
2016-04-11T04:11:19.316Z,88.12
2016-04-11T04:12:19.351Z,88.59
2016-04-11T04:13:19.307Z,88.02
2016-04-11T04:14:19.310Z,88.87
2016-04-11T04:15:19.312Z,88.78
2016-04-11T04:16:19.315Z,88.87
2016-04-11T04:17:19.318Z,88.68
2016-04-11T04:18:19.305Z,88.59
2016-04-11T04:19:19.307Z,88.49
2016-04-11T04:20:19.310Z,88.59
2016-04-11T04:21:19.296Z,88.68
2016-04-11T04:22:19.299Z,88.68
2016-04-11T04:23:19.302Z,88.78
2016-04-11T04:24:19.338Z,88.4
2016-04-11T04:25:19.384Z,88.68
2016-04-11T04:26:19.431Z,88.78
2016-04-11T04:27:19.477Z,89.06
2016-04-11T04:28:19.509Z,89.35
2016-04-11T04:29:19.534Z,88.97
2016-04-11T04:30:19.552Z,88.87
2016-04-11T04:31:19.570Z,89.06
2016-04-11T04:32:19.605Z,88.87
2016-04-11T04:33:19.592Z,88.97
2016-04-11T04:34:19.618Z,89.25
2016-04-11T04:35:19.610Z,89.06
2016-04-11T04:36:19.619Z,88.97
2016-04-11T04:37:19.628Z,88.97
2016-04-11T04:38:19.620Z,88.78
2016-04-11T04:39:19.642Z,89.06
2016-04-11T04:40:19.615Z,89.06
2016-04-11T04:41:19.635Z,89.16
2016-04-11T04:42:19.625Z,89.35
2016-04-11T04:43:19.644Z,89.06
2016-04-11T04:44:19.633Z,88.78
2016-04-11T04:45:19.636Z,88.97
2016-04-11T04:46:19.639Z,89.16
2016-04-11T04:47:19.627Z,89.16
2016-04-11T04:48:19.631Z,89.16
2016-04-11T04:49:19.634Z,89.35
2016-04-11T04:50:19.637Z,89.16
2016-04-11T04:51:19.640Z,89.25
2016-04-11T04:52:19.628Z,89.63
2016-04-11T04:53:19.646Z,89.92
2016-04-11T04:54:19.634Z,90.3
2016-04-11T04:55:19.636Z,89.63
2016-04-11T04:56:19.623Z,90.2
2016-04-11T04:57:19.626Z,90.86
2016-04-11T04:58:19.629Z,90.81
2016-04-11T04:59:19.631Z,91.76
2016-04-11T05:00:19.634Z,91.48
2016-04-11T05:01:19.636Z,92.05
2016-04-11T05:02:19.624Z,92.33
2016-04-11T05:03:19.626Z,92.09
2016-04-11T05:04:19.629Z,92.57
2016-04-11T05:05:19.632Z,92.66
2016-04-11T05:06:19.634Z,92.71
2016-04-11T05:07:19.731Z,92.52
2016-04-11T05:08:19.624Z,92.76
2016-04-11T05:09:19.627Z,92.66
2016-04-11T05:10:19.630Z,92.57
2016-04-11T05:11:19.633Z,92.61
2016-04-11T05:12:19.635Z,92.04
2016-04-11T05:13:19.622Z,92.18
2016-04-11T05:14:19.640Z,92.18
2016-04-11T05:15:19.627Z,92.66
2016-04-11T05:16:19.646Z,91.94
2016-04-11T05:17:19.633Z,91.19
2016-04-11T05:18:19.619Z,91.42
2016-04-11T05:19:19.622Z,90.85
2016-04-11T05:20:19.625Z,90.52
2016-04-11T05:21:19.627Z,89.85
2016-04-11T05:22:19.630Z,88.56
2016-04-11T05:23:19.633Z,88.09
2016-04-11T05:24:19.635Z,87.08
2016-04-11T05:25:19.623Z,85.85
2016-04-11T05:26:19.641Z,84.65
2016-04-11T05:27:19.629Z,83.32
2016-04-11T05:28:19.632Z,81.07
2016-04-11T05:29:19.634Z,78.35
2016-04-11T05:30:19.652Z,75.4
2016-04-11T05:31:19.639Z,74.25
2016-04-11T05:32:19.626Z,71.43
2016-04-11T05:33:19.629Z,68.66
2016-04-11T05:34:19.631Z,66.94
2016-04-11T05:35:19.650Z,64.59
2016-04-11T05:36:19.637Z,62.68
2016-04-11T05:37:19.639Z,60.9
2016-04-11T05:38:19.642Z,59.28
2016-04-11T05:39:19.630Z,57.85
2016-04-11T05:40:19.647Z,57.11
2016-04-11T05:41:19.650Z,54.91
2016-04-11T05:42:19.639Z,53.8
2016-04-11T05:43:19.656Z,52.26
2016-04-11T05:44:19.644Z,50.48
2016-04-11T05:45:19.646Z,49.45
2016-04-11T05:46:19.649Z,47.94
2016-04-11T05:47:19.652Z,46.98
2016-04-11T05:48:19.654Z,45.76
2016-04-11T05:49:19.657Z,44.62
2016-04-11T05:50:19.659Z,44.45
2016-04-11T05:51:19.646Z,42.74
2016-04-11T05:52:19.665Z,41.42
2016-04-11T05:53:19.652Z,39.89
2016-04-11T05:54:19.670Z,38.47
2016-04-11T05:55:19.657Z,37.41
2016-04-11T05:56:19.676Z,36.57
2016-04-11T05:57:19.663Z,35.43
2016-04-11T05:58:19.681Z,34.19
2016-04-11T05:59:20.012Z,33.72
2016-04-11T06:00:19.671Z,32.57
2016-04-11T06:01:19.673Z,31.92
2016-04-11T06:02:19.692Z,30.85
2016-04-11T06:03:19.678Z,30.19
2016-04-11T06:04:19.697Z,29.06
2016-04-11T06:05:19.700Z,28.29
2016-04-11T06:06:19.687Z,27.62
2016-04-11T06:07:19.705Z,27.26
2016-04-11T06:08:19.709Z,26.2
2016-04-11T06:09:19.710Z,25.82
2016-04-11T06:10:19.713Z,25.54
2016-04-11T06:11:19.716Z,25.05
2016-04-11T06:12:19.719Z,24.38
2016-04-11T06:13:19.721Z,24.2
2016-04-11T06:14:19.724Z,23.63
2016-04-11T06:15:19.727Z,23.24
2016-04-11T06:16:19.730Z,22.29
2016-04-11T06:17:19.733Z,21.62
2016-04-11T06:18:19.735Z,21.34
2016-04-11T06:19:19.737Z,20.67
2016-04-11T06:20:19.741Z,20.48
2016-04-11T06:21:19.758Z,20.1
2016-04-11T06:22:19.760Z,19.81
2016-04-11T06:23:19.764Z,19.43
2016-04-11T06:24:19.766Z,18.95
2016-04-11T06:25:19.769Z,18.09
2016-04-11T06:26:19.772Z,18.09
2016-04-11T06:27:19.774Z,17.22
2016-04-11T06:28:19.777Z,17.33
2016-04-11T06:29:19.796Z,17.14
2016-04-11T06:30:19.798Z,16.36
2016-04-11T06:31:19.801Z,16.56
2016-04-11T06:32:19.804Z,15.99
2016-04-11T06:33:19.807Z,15.7
2016-04-11T06:34:19.824Z,15.12
2016-04-11T06:35:19.811Z,15.12
2016-04-11T06:36:19.830Z,14.55
2016-04-11T06:37:19.832Z,14.17
2016-04-11T06:38:19.834Z,13.59
2016-04-11T06:39:19.838Z,13.59
2016-04-11T06:40:19.840Z,13.5
2016-04-11T06:41:19.843Z,13.12
2016-04-11T06:42:19.862Z,12.82
2016-04-11T06:43:19.864Z,13.02
2016-04-11T06:44:19.867Z,12.54
2016-04-11T06:45:19.870Z,11.87
2016-04-11T06:46:19.872Z,11.48
2016-04-11T06:47:19.891Z,11.19
2016-04-11T06:48:19.894Z,10.71
2016-04-11T06:49:19.897Z,10.42
2016-04-11T06:50:19.899Z,10.14
2016-04-11T06:51:19.901Z,10.14
2016-04-11T06:52:19.920Z,9.85
2016-04-11T06:53:19.922Z,9.36
2016-04-11T06:54:19.924Z,8.78
2016-04-11T06:55:19.928Z,8.98
2016-04-11T06:56:19.930Z,8.98
2016-04-11T06:57:19.933Z,8.79
2016-04-11T06:58:19.952Z,8.89
2016-04-11T06:59:19.954Z,8.98
2016-04-11T07:00:19.957Z,8.5
2016-04-11T07:01:19.959Z,8.4
2016-04-11T07:02:19.978Z,8.2
2016-04-11T07:03:19.981Z,8.21
2016-04-11T07:04:19.984Z,7.53
2016-04-11T07:05:19.987Z,7.43
2016-04-11T07:06:20.004Z,7.24
2016-04-11T07:07:20.007Z,6.46
2016-04-11T07:08:20.026Z,6.56
2016-04-11T07:09:19.856Z,6.27
2016-04-11T07:10:20.031Z,6.27
2016-04-11T07:11:20.033Z,6.27
2016-04-11T07:12:20.036Z,5.98
2016-04-11T07:13:20.054Z,5.69
2016-04-11T07:14:20.056Z,5.79
2016-04-11T07:15:20.059Z,5.49
2016-04-11T07:16:20.078Z,5.4
2016-04-11T07:17:20.081Z,5.4
2016-04-11T07:18:20.084Z,5.2
2016-04-11T07:19:20.086Z,5.49
2016-04-11T07:20:20.089Z,5.59
2016-04-11T07:21:20.107Z,5.4
2016-04-11T07:22:20.110Z,5.4
2016-04-11T07:23:20.113Z,5.3
2016-04-11T07:24:20.146Z,5.4
2016-04-11T07:25:20.135Z,5.49
2016-04-11T07:26:20.138Z,5
2016-04-11T07:27:20.141Z,4.81
2016-04-11T07:28:20.159Z,5.2
2016-04-11T07:29:20.162Z,5.4
2016-04-11T07:30:20.164Z,5.4
2016-04-11T07:31:20.167Z,5.4
2016-04-11T07:32:20.186Z,5
2016-04-11T07:33:20.204Z,4.32
2016-04-11T07:34:20.190Z,4.32
2016-04-11T07:35:20.209Z,4.03
2016-04-11T07:36:20.212Z,3.94
2016-04-11T07:37:20.230Z,3.44
2016-04-11T07:38:20.233Z,3.64
2016-04-11T07:39:20.236Z,3.15
2016-04-11T07:40:20.239Z,3.15
2016-04-11T07:41:20.256Z,3.44
2016-04-11T07:42:20.259Z,3.34
2016-04-11T07:43:20.278Z,2.95
2016-04-11T07:44:20.280Z,2.66
2016-04-11T07:45:20.283Z,2.86
2016-04-11T07:46:20.302Z,2.66
2016-04-11T07:47:20.288Z,2.56
2016-04-11T07:48:20.308Z,2.66
2016-04-11T07:49:20.310Z,2.66
2016-04-11T07:50:20.328Z,2.56
2016-04-11T07:51:20.330Z,2.86
2016-04-11T07:52:20.332Z,3.05
2016-04-11T07:53:20.352Z,2.75
2016-04-11T07:54:20.354Z,2.75
2016-04-11T07:55:20.357Z,2.66
2016-04-11T07:56:20.360Z,3.24
2016-04-11T07:57:20.377Z,3.24
2016-04-11T07:58:20.380Z,3.44
2016-04-11T07:59:20.399Z,3.53
2016-04-11T08:00:20.401Z,3.83
2016-04-11T08:01:20.420Z,3.34
2016-04-11T08:02:20.423Z,3.64
2016-04-11T08:03:20.426Z,4.02
2016-04-11T08:04:20.443Z,4.9
2016-04-11T08:05:20.431Z,5.77
2016-04-11T08:06:20.448Z,5.38
2016-04-11T08:07:20.451Z,5.48
2016-04-11T08:08:20.454Z,5.19
2016-04-11T08:09:20.461Z,5.19
2016-04-11T08:10:20.465Z,4.9
2016-04-11T08:11:20.483Z,4.71
2016-04-11T08:12:20.485Z,4.02
2016-04-11T08:13:20.582Z,3.53
2016-04-11T08:14:20.506Z,2.75
2016-04-11T08:15:20.509Z,2.46
2016-04-11T08:16:20.511Z,2.56
2016-04-11T08:17:20.514Z,2.56
2016-04-11T08:18:20.538Z,2.66
2016-04-11T08:19:20.540Z,2.56
2016-04-11T08:20:20.560Z,2.46
2016-04-11T08:21:20.546Z,2.26
2016-04-11T08:22:20.564Z,2.36
2016-04-11T08:23:20.567Z,2.75
2016-04-11T08:24:20.569Z,2.66
2016-04-11T08:25:20.588Z,2.36
2016-04-11T08:26:20.590Z,2.56
2016-04-11T08:27:20.593Z,2.07
2016-04-11T08:28:20.752Z,1.97
2016-04-11T08:29:20.614Z,1.97
2016-04-11T08:30:20.617Z,2.07
2016-04-11T08:31:20.635Z,1.97
2016-04-11T08:32:20.623Z,2.07
2016-04-11T08:33:20.640Z,2.26
2016-04-11T08:34:20.643Z,2.76
2016-04-11T08:35:20.646Z,2.56
2016-04-11T08:36:20.664Z,3.24
2016-04-11T08:37:20.667Z,3.05
2016-04-11T08:38:20.670Z,3.64
2016-04-11T08:39:20.672Z,3.63
2016-04-11T08:40:20.691Z,3.93
2016-04-11T08:41:20.694Z,3.24
2016-04-11T08:42:20.696Z,3.05
2016-04-11T08:43:20.589Z,2.66
2016-04-11T08:44:20.717Z,2.56
2016-04-11T08:45:20.719Z,2.26
2016-04-11T08:46:20.722Z,1.97
2016-04-11T08:47:20.725Z,1.57
2016-04-11T08:48:20.743Z,1.58
2016-04-11T08:49:20.746Z,1.48
2016-04-11T08:50:20.749Z,1.28
2016-04-11T08:51:20.768Z,1.28
2016-04-11T08:52:20.754Z,1.18
2016-04-11T08:53:20.772Z,2.07
2016-04-11T08:54:20.776Z,2.26
2016-04-11T08:55:20.778Z,2.46
2016-04-11T08:56:20.796Z,2.66
2016-04-11T08:57:20.798Z,2.86
2016-04-11T08:58:20.832Z,2.17
2016-04-11T08:59:20.804Z,2.36
2016-04-11T09:00:20.806Z,2.56
2016-04-11T09:01:20.810Z,2.66
2016-04-11T09:02:20.828Z,3.05
2016-04-11T09:03:20.831Z,2.75
2016-04-11T09:04:20.833Z,2.36
2016-04-11T09:05:20.836Z,2.56
2016-04-11T09:06:20.839Z,2.76
2016-04-11T09:07:20.841Z,2.75
2016-04-11T09:08:20.859Z,3.44
2016-04-11T09:09:20.862Z,3.34
2016-04-11T09:10:20.865Z,3.54
2016-04-11T09:11:20.867Z,3.83
2016-04-11T09:12:20.886Z,3.74
2016-04-11T09:13:20.827Z,4.13
2016-04-11T09:14:20.891Z,3.83
2016-04-11T09:15:20.894Z,3.74
2016-04-11T09:16:20.913Z,4.03
2016-04-11T09:17:20.899Z,3.25
2016-04-11T09:18:20.918Z,3.15
2016-04-11T09:19:20.921Z,3.54
2016-04-11T09:20:20.923Z,3.54
2016-04-11T09:21:20.941Z,3.64
2016-04-11T09:22:20.929Z,3.83
2016-04-11T09:23:20.947Z,4.52
2016-04-11T09:24:20.934Z,4.42
2016-04-11T09:25:20.796Z,4.81
2016-04-11T09:26:20.955Z,5.4
2016-04-11T09:27:20.957Z,5.39
2016-04-11T09:28:21.054Z,5.88
2016-04-11T09:29:20.963Z,7.14
2016-04-11T09:30:20.966Z,7.92
2016-04-11T09:31:20.984Z,7.91
2016-04-11T09:32:20.987Z,8.2
2016-04-11T09:33:20.989Z,7.71
2016-04-11T09:34:20.992Z,8.11
2016-04-11T09:35:21.011Z,8.4
2016-04-11T09:36:21.014Z,8.79
2016-04-11T09:37:21.000Z,9.66
2016-04-11T09:38:21.003Z,10.24
2016-04-11T09:39:21.022Z,11.01
2016-04-11T09:40:21.024Z,11.58
2016-04-11T09:41:21.027Z,12.64
2016-04-11T09:42:21.029Z,13.7
2016-04-11T09:43:21.048Z,14.37
2016-04-11T09:44:21.035Z,14.84
2016-04-11T09:45:21.037Z,15.99
2016-04-11T09:46:21.040Z,16.96
2016-04-11T09:47:21.043Z,17.82
2016-04-11T09:48:21.046Z,18.87
2016-04-11T09:49:21.064Z,20.19
2016-04-11T09:50:21.066Z,21.44
2016-04-11T09:51:21.069Z,22.1
2016-04-11T09:52:21.072Z,23.43
2016-04-11T09:53:21.090Z,23.91
2016-04-11T09:54:21.077Z,24.09
2016-04-11T09:55:21.079Z,24.76
2016-04-11T09:56:21.099Z,25.04
2016-04-11T09:57:21.085Z,25.52
2016-04-11T09:58:21.087Z,25.71
2016-04-11T09:59:21.090Z,26.1
2016-04-11T10:00:21.109Z,26.28
2016-04-11T10:01:21.112Z,27.62
2016-04-11T10:02:21.114Z,28.2
2016-04-11T10:03:21.117Z,28.38
2016-04-11T10:04:21.119Z,28.38
2016-04-11T10:05:21.123Z,28.38
2016-04-11T10:06:21.125Z,28.38
2016-04-11T10:07:21.143Z,28.75
2016-04-11T10:08:21.130Z,28.75
2016-04-11T10:09:21.134Z,29.43
2016-04-11T10:10:21.136Z,30.1
2016-04-11T10:11:21.154Z,30.57
2016-04-11T10:12:21.156Z,30.57
2016-04-11T10:13:21.159Z,30.95
2016-04-11T10:14:21.161Z,31.15
2016-04-11T10:15:21.164Z,31.24
2016-04-11T10:16:21.183Z,32.1
2016-04-11T10:17:21.169Z,32.3
2016-04-11T10:18:21.172Z,32.3
2016-04-11T10:19:21.175Z,32.2
2016-04-11T10:20:21.178Z,32.68
2016-04-11T10:21:21.180Z,32.68
2016-04-11T10:22:21.199Z,33.24
2016-04-11T10:23:21.202Z,33.24
2016-04-11T10:24:21.188Z,33.34
2016-04-11T10:25:21.207Z,33.05
2016-04-11T10:26:21.210Z,33.24
2016-04-11T10:27:21.212Z,33.16
2016-04-11T10:28:21.200Z,33.16
2016-04-11T10:29:21.906Z,33.34
2016-04-11T10:30:21.221Z,33.24
2016-04-11T10:31:21.223Z,33.62
2016-04-11T10:32:21.226Z,33.9
2016-04-11T10:33:21.229Z,34.19
2016-04-11T10:34:21.232Z,34.86
2016-04-11T10:35:21.234Z,34.95
2016-04-11T10:36:21.237Z,34.95
2016-04-11T10:37:21.255Z,34.95
2016-04-11T10:38:21.242Z,35.14
2016-04-11T10:39:21.245Z,35.53
2016-04-11T10:40:21.264Z,35.63
2016-04-11T10:41:21.250Z,35.71
2016-04-11T10:42:21.269Z,36.95
2016-04-11T10:43:21.287Z,37.53
2016-04-11T10:44:21.274Z,37.99
2016-04-11T10:45:21.292Z,38.18
2016-04-11T10:46:21.264Z,38.56
2016-04-11T10:47:21.282Z,38.2
2016-04-11T10:48:21.285Z,37.53
2016-04-11T10:49:21.303Z,37.34
2016-04-11T10:50:21.290Z,37.24
2016-04-11T10:51:21.293Z,37.55
2016-04-11T10:52:21.296Z,37.45
2016-04-11T10:53:21.299Z,37.16
2016-04-11T10:54:21.301Z,37.16
2016-04-11T10:55:21.304Z,37.07
2016-04-11T10:56:21.306Z,36.88
2016-04-11T10:57:21.310Z,36.58
2016-04-11T10:58:21.312Z,36.3
2016-04-11T10:59:21.330Z,36.13
2016-04-11T11:00:21.317Z,36.22
2016-04-11T11:01:21.320Z,36.22
2016-04-11T11:02:21.337Z,36.22
2016-04-11T11:03:21.341Z,36.99
2016-04-11T11:04:21.344Z,37.18
2016-04-11T11:05:21.346Z,37.37
2016-04-11T11:06:21.348Z,37.27
2016-04-11T11:07:21.351Z,37.27
2016-04-11T11:08:21.353Z,37.57
2016-04-11T11:09:21.357Z,37.37
2016-04-11T11:10:21.360Z,37.85
2016-04-11T11:11:21.362Z,38.41
2016-04-11T11:12:21.364Z,38.79
2016-04-11T11:13:21.368Z,39.28
2016-04-11T11:14:21.386Z,39.08
2016-04-11T11:15:21.373Z,38.51
2016-04-11T11:16:21.375Z,38.49
2016-04-11T11:17:21.379Z,38.49
2016-04-11T11:18:21.381Z,38.59
2016-04-11T11:19:21.383Z,38.59
2016-04-11T11:20:21.386Z,38.76
2016-04-11T11:21:21.389Z,39.53
2016-04-11T11:22:21.391Z,39.62
2016-04-11T11:23:21.394Z,39.81
2016-04-11T11:24:21.397Z,40
2016-04-11T11:25:21.416Z,40.1
2016-04-11T11:26:21.402Z,40.1
2016-04-11T11:27:21.421Z,40.67
2016-04-11T11:28:21.408Z,40.41
2016-04-11T11:29:21.427Z,39.73
2016-04-11T11:30:21.429Z,40.02
2016-04-11T11:31:21.432Z,40.22
2016-04-11T11:32:21.434Z,40.22
2016-04-11T11:33:21.437Z,40.7
2016-04-11T11:34:21.439Z,40.79
2016-04-11T11:35:21.442Z,41.08
2016-04-11T11:36:21.445Z,40.91
2016-04-11T11:37:21.448Z,41.1
2016-04-11T11:38:21.451Z,40.62
2016-04-11T11:39:21.453Z,40.33
2016-04-11T11:40:21.456Z,40.81
2016-04-11T11:41:21.459Z,40.14
2016-04-11T11:42:21.461Z,39.56
2016-04-11T11:43:21.480Z,39.66
2016-04-11T11:44:21.467Z,39.76
2016-04-11T11:45:21.486Z,40.14
2016-04-11T11:46:21.472Z,40.43
2016-04-11T11:47:21.475Z,41.58
2016-04-11T11:48:21.478Z,41.58
2016-04-11T11:49:21.496Z,41.87
2016-04-11T11:50:21.499Z,41.39
2016-04-11T11:51:21.485Z,41.1
2016-04-11T11:52:21.489Z,41
2016-04-11T11:53:21.491Z,41
2016-04-11T11:54:21.510Z,40.81
2016-04-11T11:55:21.512Z,40.62
2016-04-11T11:56:21.499Z,40.81
2016-04-11T11:57:21.502Z,40.52
2016-04-11T11:58:21.504Z,40.72
2016-04-11T11:59:21.507Z,41
2016-04-11T12:00:21.509Z,41
2016-04-11T12:01:21.513Z,41
2016-04-11T12:02:21.531Z,40.91
2016-04-11T12:03:21.517Z,41
2016-04-11T12:04:21.537Z,40.81
2016-04-11T12:05:21.524Z,40.52
2016-04-11T12:06:21.542Z,40.52
2016-04-11T12:07:21.544Z,40.05
2016-04-11T12:08:21.548Z,39.76
2016-04-11T12:09:21.549Z,39.95
2016-04-11T12:10:21.537Z,40.14
2016-04-11T12:11:21.539Z,40.23
2016-04-11T12:12:21.558Z,40.52
2016-04-11T12:13:21.561Z,40.79
2016-04-11T12:14:21.548Z,41.08
2016-04-11T12:15:21.566Z,40.99
2016-04-11T12:16:21.568Z,40.99
2016-04-11T12:17:21.572Z,40.22
2016-04-11T12:18:21.574Z,40.99
2016-04-11T12:19:21.577Z,40.7
2016-04-11T12:20:21.579Z,40.7
2016-04-11T12:21:21.582Z,40.6
2016-04-11T12:22:21.585Z,40.31
2016-04-11T12:23:21.588Z,40.31
2016-04-11T12:24:21.590Z,40.43
2016-04-11T12:25:21.593Z,40.14
2016-04-11T12:26:21.596Z,39.85
2016-04-11T12:27:21.598Z,39.56
2016-04-11T12:28:21.601Z,39.47
2016-04-11T12:29:21.603Z,39.28
2016-04-11T12:30:21.607Z,39.47
2016-04-11T12:31:21.609Z,39.08
2016-04-11T12:32:21.612Z,38.89
2016-04-11T12:33:21.614Z,38.81
2016-04-11T12:34:21.617Z,38.79
2016-04-11T12:35:21.620Z,39.28
2016-04-11T12:36:21.622Z,39.28
2016-04-11T12:37:21.625Z,39.08
2016-04-11T12:38:21.628Z,38.51
2016-04-11T12:39:21.631Z,38.6
2016-04-11T12:40:21.634Z,38.79
2016-04-11T12:41:21.636Z,38.79
2016-04-11T12:42:21.638Z,38.32
2016-04-11T12:43:21.641Z,38.89
2016-04-11T12:44:21.644Z,39.18
2016-04-11T12:45:21.647Z,39.37
2016-04-11T12:46:21.492Z,39.47
2016-04-11T12:47:21.652Z,39.08
2016-04-11T12:48:21.654Z,38.79
2016-04-11T12:49:21.658Z,38.22
2016-04-11T12:50:21.676Z,37.84
2016-04-11T12:51:21.663Z,38.32
2016-04-11T12:52:21.666Z,38.51
2016-04-11T12:53:21.668Z,38.22
2016-04-11T12:54:21.671Z,39.08
2016-04-11T12:55:21.673Z,39.56
2016-04-11T12:56:21.676Z,38.99
2016-04-11T12:57:21.679Z,38.89
2016-04-11T12:58:21.681Z,39.28
2016-04-11T12:59:21.700Z,38.51
2016-04-11T13:00:21.687Z,38.51
2016-04-11T13:01:21.690Z,38.32